createdAt,value
2022-10-24T00:03:32.931Z,100.00
2022-10-24T00:08:38.899Z,100.00
2022-10-24T00:13:40.859Z,100.00
2022-10-24T00:18:43.716Z,100.00
2022-10-24T00:23:45.249Z,100.00
2022-10-24T00:28:46.753Z,100.00
2022-10-24T00:33:48.563Z,100.00
2022-10-24T00:38:51.699Z,100.00
2022-10-24T00:44:17.148Z,100.00
2022-10-24T00:49:24.131Z,100.00
2022-10-24T00:54:26.265Z,100.00
2022-10-24T00:59:28.083Z,100.00
2022-10-24T01:04:30.735Z,100.00
2022-10-24T01:09:50.955Z,100.00
2022-10-24T01:15:09.791Z,100.00
2022-10-24T01:20:26.835Z,100.00
2022-10-24T01:25:52.647Z,100.00
2022-10-24T01:31:06.139Z,96.94
2022-10-24T01:36:16.883Z,96.83
2022-10-24T01:41:22.859Z,96.23
2022-10-24T01:46:32.701Z,96.31
2022-10-24T01:51:36.797Z,97.23
2022-10-24T01:56:38.584Z,96.77
2022-10-24T02:01:40.190Z,93.99
2022-10-24T02:06:44.047Z,93.53
2022-10-24T02:11:47.713Z,92.13
2022-10-24T02:16:49.827Z,91.76
2022-10-24T02:22:12.690Z,90.61
2022-10-24T02:27:53.170Z,89.86
2022-10-24T02:32:57.203Z,88.48
2022-10-24T02:38:11.655Z,88.45
2022-10-24T02:43:14.433Z,87.50
2022-10-24T02:48:19.179Z,87.36
2022-10-24T02:53:24.272Z,86.37
2022-10-24T02:58:25.758Z,86.21
2022-10-24T03:03:27.199Z,86.10
2022-10-24T03:08:28.708Z,85.69
2022-10-24T03:13:30.135Z,85.58
2022-10-24T03:18:31.709Z,85.39
2022-10-24T03:23:33.249Z,84.24
2022-10-24T03:28:34.844Z,85.67
2022-10-24T03:33:36.311Z,84.84
2022-10-24T03:38:37.744Z,85.61
2022-10-24T03:43:39.236Z,85.60
2022-10-24T03:48:40.701Z,85.37
2022-10-24T03:53:42.160Z,85.31
2022-10-24T03:58:43.719Z,86.47
2022-10-24T04:03:45.891Z,87.00
2022-10-24T04:08:47.417Z,87.00
2022-10-24T04:13:48.955Z,86.66
2022-10-24T04:18:51.013Z,86.16
2022-10-24T04:23:52.487Z,86.72
2022-10-24T04:28:53.887Z,86.36
2022-10-24T04:33:55.308Z,85.85
2022-10-24T04:38:56.813Z,84.62
2022-10-24T04:43:58.418Z,84.49
2022-10-24T04:48:59.856Z,84.69
2022-10-24T04:54:01.502Z,83.74
2022-10-24T04:59:03.136Z,84.28
2022-10-24T05:04:04.648Z,84.27
2022-10-24T05:09:06.094Z,84.70
2022-10-24T05:14:07.686Z,84.57
2022-10-24T05:19:09.368Z,83.92
2022-10-24T05:24:11.295Z,83.00
2022-10-24T05:29:12.828Z,83.70
2022-10-24T05:34:14.328Z,83.20
2022-10-24T05:39:15.880Z,83.32
2022-10-24T05:44:17.367Z,83.20
2022-10-24T05:49:18.892Z,83.60
2022-10-24T05:54:20.330Z,83.05
2022-10-24T05:59:21.865Z,82.83
2022-10-24T06:04:23.566Z,83.29
2022-10-24T06:09:25.096Z,82.71
2022-10-24T06:14:27.588Z,83.38
2022-10-24T06:19:29.057Z,83.42
2022-10-24T06:24:31.090Z,83.49
2022-10-24T06:29:32.883Z,84.17
2022-10-24T06:34:35.473Z,84.13
2022-10-24T06:39:36.944Z,83.36
2022-10-24T06:44:38.636Z,83.29
2022-10-24T06:49:40.082Z,82.58
2022-10-24T06:54:43.566Z,81.86
2022-10-24T06:59:45.458Z,81.93
2022-10-24T07:04:46.908Z,82.31
2022-10-24T07:09:57.327Z,83.21
2022-10-24T07:14:58.768Z,82.94
2022-10-24T07:20:00.245Z,82.72
2022-10-24T07:25:02.196Z,83.07
2022-10-24T07:30:06.623Z,83.71
2022-10-24T07:35:08.400Z,82.66
2022-10-24T07:40:10.467Z,83.12
2022-10-24T07:45:12.645Z,82.79
2022-10-24T07:50:17.073Z,82.86
2022-10-24T07:55:18.634Z,82.71
2022-10-24T08:00:20.299Z,82.18
2022-10-24T08:05:22.973Z,81.85
2022-10-24T08:10:24.827Z,82.22
2022-10-24T08:15:27.781Z,80.99
2022-10-24T08:20:30.051Z,81.41
2022-10-24T08:25:31.480Z,80.64
2022-10-24T08:30:32.994Z,80.66
2022-10-24T08:35:34.432Z,80.19
2022-10-24T08:40:35.963Z,80.20
2022-10-24T08:45:59.272Z,80.08
2022-10-24T08:51:18.891Z,78.62
2022-10-24T08:56:20.939Z,78.79
2022-10-24T09:01:33.479Z,78.11
2022-10-24T09:06:35.451Z,77.12
2022-10-24T09:11:47.779Z,77.83
2022-10-24T09:22:28.458Z,77.70
2022-10-24T09:27:39.179Z,77.79
2022-10-24T09:32:42.240Z,77.49
2022-10-24T09:37:48.370Z,76.91
2022-10-24T09:43:00.708Z,76.63
2022-10-24T09:48:30.308Z,76.33
2022-10-24T09:53:34.734Z,75.90
2022-10-24T09:58:36.708Z,75.73
2022-10-24T10:03:38.186Z,75.03
2022-10-24T10:08:39.831Z,75.91
2022-10-24T10:13:45.324Z,76.02
2022-10-24T10:18:48.420Z,75.06
2022-10-24T10:23:55.247Z,75.28
2022-10-24T10:29:19.879Z,76.88
2022-10-24T10:34:25.524Z,76.36
2022-10-24T10:39:57.592Z,76.43
2022-10-24T10:45:14.861Z,75.88
2022-10-24T10:50:35.004Z,75.29
2022-10-24T10:56:06.351Z,74.93
2022-10-24T11:01:36.003Z,71.83
2022-10-24T11:06:56.085Z,72.66
2022-10-24T11:12:29.095Z,74.17
2022-10-24T11:17:46.122Z,74.15
2022-10-24T11:23:05.365Z,73.76
2022-10-24T11:28:15.304Z,72.44
2022-10-24T11:33:22.048Z,73.16
2022-10-24T11:38:24.398Z,72.03
2022-10-24T11:43:44.181Z,72.91
2022-10-24T11:49:23.588Z,73.54
2022-10-24T11:54:47.234Z,72.89
2022-10-24T11:59:52.048Z,73.09
2022-10-24T12:05:45.638Z,73.07
2022-10-24T12:11:22.215Z,72.33
2022-10-24T12:16:38.164Z,71.08
2022-10-24T12:21:45.735Z,71.94
2022-10-24T12:26:59.820Z,71.78
2022-10-24T12:32:30.972Z,71.72
2022-10-24T12:37:34.312Z,71.87
2022-10-24T12:42:35.696Z,71.79
2022-10-24T12:47:52.316Z,71.61
2022-10-24T12:52:56.512Z,71.77
2022-10-24T12:57:58.618Z,72.62
2022-10-24T13:03:14.174Z,71.80
2022-10-24T13:08:57.653Z,71.12
2022-10-24T13:14:21.118Z,71.60
2022-10-24T13:19:22.657Z,71.13
2022-10-24T13:24:39.824Z,70.56
2022-10-24T13:29:42.838Z,69.85
2022-10-24T13:34:45.599Z,70.74
2022-10-24T13:40:10.723Z,71.86
2022-10-24T13:45:41.153Z,72.32
2022-10-24T13:50:56.464Z,71.43
2022-10-24T13:56:10.358Z,71.86
2022-10-24T14:01:18.812Z,70.88
2022-10-24T14:06:29.914Z,71.90
2022-10-24T14:11:31.721Z,72.03
2022-10-24T14:16:34.160Z,71.36
2022-10-24T14:21:43.490Z,70.59
2022-10-24T14:26:46.439Z,71.42
2022-10-24T14:31:59.873Z,72.83
2022-10-24T14:37:05.407Z,73.72
2022-10-24T14:42:14.662Z,73.52
2022-10-24T14:47:25.873Z,73.26
2022-10-24T14:52:42.269Z,73.33
2022-10-24T14:57:50.439Z,74.77
2022-10-24T15:02:54.953Z,75.48
2022-10-24T15:08:20.989Z,77.28
2022-10-24T15:13:25.212Z,77.45
2022-10-24T15:18:34.476Z,77.52
2022-10-24T15:23:45.233Z,77.83
2022-10-24T15:28:49.879Z,80.49
2022-10-24T15:33:51.345Z,86.83
2022-10-24T15:39:02.525Z,97.33
2022-10-24T15:44:17.511Z,100.00
2022-10-24T15:49:18.937Z,100.00
2022-10-24T15:54:22.571Z,100.00
2022-10-24T15:59:26.693Z,100.00
2022-10-24T16:04:28.605Z,100.00
2022-10-24T16:09:31.102Z,100.00
2022-10-24T16:14:32.870Z,100.00
2022-10-24T16:19:34.417Z,100.00
2022-10-24T16:24:35.868Z,100.00
2022-10-24T16:29:37.296Z,100.00
2022-10-24T16:34:38.739Z,100.00
2022-10-24T16:39:42.187Z,100.00
2022-10-24T16:44:43.640Z,100.00
2022-10-24T16:49:45.353Z,100.00
2022-10-24T16:54:46.871Z,100.00
2022-10-24T16:59:48.719Z,100.00
2022-10-24T17:04:50.119Z,100.00
2022-10-24T17:09:51.712Z,100.00
2022-10-24T17:14:54.352Z,100.00
2022-10-24T17:19:55.830Z,100.00
2022-10-24T17:24:57.535Z,100.00
2022-10-24T17:29:59.232Z,100.00
2022-10-24T17:35:00.892Z,100.00
2022-10-24T17:40:11.465Z,100.00
2022-10-24T17:45:23.676Z,100.00
2022-10-24T17:50:25.183Z,100.00
2022-10-24T17:55:45.173Z,100.00
2022-10-24T18:00:47.579Z,100.00
2022-10-24T18:05:49.153Z,100.00
2022-10-24T18:10:50.642Z,100.00
2022-10-24T18:15:52.051Z,100.00
2022-10-24T18:21:05.619Z,100.00
2022-10-24T18:26:13.174Z,100.00
2022-10-24T18:31:20.784Z,100.00
2022-10-24T18:36:25.835Z,100.00
2022-10-24T18:41:37.312Z,100.00
2022-10-24T18:46:39.062Z,100.00
2022-10-24T18:51:54.487Z,100.00
2022-10-24T18:56:57.184Z,100.00
2022-10-24T19:02:14.059Z,100.00
2022-10-24T19:07:15.652Z,100.00
2022-10-24T19:12:17.240Z,100.00
2022-10-24T19:17:19.880Z,100.00
2022-10-24T19:22:21.352Z,100.00
2022-10-24T19:27:22.772Z,100.00
2022-10-24T19:32:24.316Z,100.00
2022-10-24T19:37:25.805Z,100.00
2022-10-24T19:42:27.315Z,100.00
2022-10-24T19:47:28.791Z,100.00
2022-10-24T19:52:30.327Z,100.00
2022-10-24T19:57:31.974Z,100.00
2022-10-24T20:02:34.288Z,100.00
2022-10-24T20:07:35.681Z,100.00
2022-10-24T20:12:37.140Z,100.00
2022-10-24T20:17:38.600Z,100.00
2022-10-24T20:22:40.371Z,100.00
2022-10-24T20:27:41.793Z,100.00
2022-10-24T20:32:43.219Z,100.00
2022-10-24T20:37:45.231Z,100.00
2022-10-24T20:42:46.947Z,100.00
2022-10-24T20:47:48.673Z,100.00
2022-10-24T20:52:51.508Z,100.00
2022-10-24T20:57:52.989Z,100.00
2022-10-24T21:02:54.467Z,100.00
2022-10-24T21:07:56.003Z,100.00
2022-10-24T21:12:57.486Z,100.00
2022-10-24T21:17:59.025Z,100.00
2022-10-24T21:23:00.669Z,100.00
2022-10-24T21:28:02.075Z,100.00
2022-10-24T21:33:04.423Z,100.00
2022-10-24T21:38:05.833Z,100.00
2022-10-24T21:43:07.273Z,100.00
2022-10-24T21:48:08.705Z,100.00
2022-10-24T21:53:10.126Z,100.00
2022-10-24T21:58:11.533Z,100.00
2022-10-24T22:03:12.937Z,100.00
2022-10-24T22:08:14.351Z,100.00
2022-10-24T22:13:15.792Z,100.00
2022-10-24T22:18:17.244Z,100.00
2022-10-24T22:23:19.013Z,100.00
2022-10-24T22:28:21.040Z,100.00
2022-10-24T22:33:36.656Z,100.00
2022-10-24T22:38:38.479Z,100.00
2022-10-24T22:43:40.179Z,100.00
2022-10-24T22:48:46.972Z,100.00
2022-10-24T22:53:48.679Z,100.00
2022-10-24T22:58:50.443Z,100.00
2022-10-24T23:04:24.002Z,100.00
2022-10-24T23:09:25.415Z,100.00
2022-10-24T23:14:27.254Z,100.00
2022-10-24T23:19:31.125Z,100.00
2022-10-24T23:24:32.947Z,100.00
2022-10-24T23:29:36.158Z,100.00
2022-10-24T23:34:37.860Z,100.00
2022-10-24T23:39:39.546Z,100.00
2022-10-24T23:44:41.200Z,100.00
2022-10-24T23:49:55.472Z,100.00
2022-10-24T23:54:57.176Z,100.00
2022-10-24T23:59:58.655Z,100.00
